Frisco, NC

12:52 PM EDT on September 05, 2015 (GMT -0400)
Mitchell | | Change Station
CLOSE
Current Station
Airport
Location: Hatteras,
Elevation: 10 ft
Nearby Weather Stations
Active Advisory: Beach Hazard Statement

Elev 10 ft 35.23 °N, 75.62 °W | Updated 43 minutes ago

Scattered Clouds
Scattered Clouds
85 °F
Feels Like 93 °F
N
12
Wind Variable Wind from NE
Gusts 20 mph

Today
High -- | Low -- °F
--% Chance of Precip.
Yesterday
High -- | Low -- °F
Precip. -- in
6:37 AM 7:24 PM
Waning Gibbous, 47% visible
Pressure 30.06 in
Visibility 10.0 miles
Clouds Scattered Clouds 1800 ft
Heat Index 93 °F
Dew Point 75 °F
Humidity 72%
Rainfall 0.00 in
Snow Depth Not available.
UV 8 out of 12
Pollen 8.70 out of 12
Air Quality Not available.
Flu Activity Not available.
SPECI KHSE 051609Z AUTO 04010G17KT 10SM SCT018 29/24 A3006 RMK AO2 T02940239 TSNO $
Pressure 30.06 in
Visibility 10.0 miles
Clouds Scattered Clouds 1800 ft
Heat Index 93 °F
Dew Point 75 °F
Humidity 72%
Rainfall 0.00 in
Snow Depth Not available.
UV 8 out of 12
Pollen 8.70 out of 12
Air Quality Not available.
Flu Activity Not available.
SPECI KHSE 051609Z AUTO 04010G17KT 10SM SCT018 29/24 A3006 RMK AO2 T02940239 TSNO $

10-Day Weather Forecast

×

Almanac

Astronomy

Sep. 05, 2015 Rise Set
Actual Time
Civil Twilight
Nautical Twilight
Astronomical Twilight
Moon
Length of Visible Light
Length of Day
Tomorrow will be .
, % of the Moon is Illuminated

Today's Extremes

State Highs State Lows

Community

WunderPhotos

Upload Photos

1,852,498 photos uploaded!

WunderBlogs® & News

Nearby

Air Quality

  Air Quality AQ Index Pollutant
Not available.

Snow Depth

Station Depth Elevation

Earthquake Activity

City Distance Mag. Time & Date
Minimum magnitude displayed is 2.5.

Coastal Water Temperatures

Place Temperature

Stations

Nearby Weather Stations

Station Location Temp. Windchill Dew Point Humidity Wind Precip. Elev Updated Type
                   
Beach Hazard Statement
Statement as of 11:52 AM EDT on September 05, 2015

... Beach hazards statement in effect until 8 PM EDT this
evening...

The National Weather Service in Newport/Morehead City has issued
a beach hazards statement... which is in effect until 8 PM EDT
this evening.

* Hazards... dangerous shore break

* location... north of Cape Hatteras

* timing and tides... through this evening

* surf height... 4 to 6 feet

Precautionary/preparedness actions...

Shore break occurs when waves break directly on the beach. The
most common injuries with strong shore break are neck and back
injuries... which most often occur when the powerful surf throws a
swimmer or surfer head first into the bottom. It is extremely
important to protect your head and neck whenever you are in
breaking waves by keeping your hands in front of you at all times.